In Rescue
 
Open Full Screen Window  High Contrast Mode
Wind Gusting 00 knots
06
November 29, 2022 8:51 AM EST
Weather Information
Wind Direction
  130 °
Wind Speed
  06 kt (7 mph)
Wind Gust
  00 kt (0 mph)
Altimeter
29.92 in
Visibility
10 SM
Temperature
01° C
34° F
Dewpoint
-01° C
30° F
Humidity
87%
Sky Condition
Scattered @ 3,000 ft
VFR

METAR KSLH 291351Z AUTO 13006KT 10SM SCT030 01/M01 A2992 RMK AO2

FAA Disclaimer: The data displayed is for advisory purposes only and is not to be used for flight planning or operations.